Terminal Aerodrome Forecast
Issued by NWS

Home | Current Version | Previous Version | Text Only | Print | Product List | Glossary On
Versions: 1 2 3 4 5 6 7 8 9 10 11 12 13 14 15 16 17
000
FTUS42 TJSJ 281733
TAFIST
TAF
TIST 281733Z 2818/2918 11015G20KT P6SM FEW025 SCT040 BKN090
     FM282330 08008KT P6SM SCT020
     FM291330 12012KT P6SM SCT025 SCT050=

USA.gov is the U.S. government's official web portal to all federal, state and local government web resources and services.